Latest Weather Observations for Busselton Airport

IDW60801

Issued at 8:03 am WST Monday 2 February 2015 (issued every 30 minutes, with the page automatically refreshed every 10 minutes)

About weather observations | Map of weather stations | Latest weather observations for WA | Other Formats
Station Details ID: 009603 Name: BUSSELTON AERO Lat: -33.69 Lon: 115.40 Height: 16.3 m
Data from the previous 72 hours. | See also: Recent months at Busselton Airport
Date/Time
WST
Temp
°C
App
Temp
°C
Dew
Point
Rel
Hum
%
Delta-T
°C
Wind Press
QNH
hPa
Press
MSL
hPa
Rain
since 9 am
mm
Dir
 
Spd
km/h
Gust
km/h
Spd
kts
Gust
kts
02/08:00am 25.5 21.3 12.4 44 7.5 E 26 35 14 19 1015.3 1015.3 0.0
02/07:30am 24.0 20.5 12.3 48 6.7 E 22 32 12 17 1015.1 1015.1 0.0
02/07:00am 21.9 19.7 12.2 54 5.5 E 15 22 8 12 1014.5 1014.5 0.0
02/06:30am 21.8 18.9 12.4 55 5.3 E 19 28 10 15 1014.0 1014.0 0.0
02/06:00am 20.9 18.0 12.3 58 4.8 E 19 22 10 12 1013.6 1013.6 0.0
02/05:30am 21.1 18.7 12.5 58 4.9 ESE 17 22 9 12 1013.2 1013.2 0.0
02/05:00am 21.7 19.7 12.8 57 5.1 E 15 20 8 11 1012.9 1012.9 0.0
02/04:30am 21.7 19.7 12.8 57 5.1 E 15 20 8 11 1012.6 1012.6 0.0
02/04:00am 22.2 20.6 12.7 55 5.4 E 13 22 7 12 1012.5 1012.5 0.0
02/03:30am 22.3 19.4 12.8 55 5.4 ESE 20 28 11 15 1011.2 1011.2 0.0
02/03:00am 22.1 19.1 12.6 55 5.4 ESE 20 26 11 14 1012.1 1012.1 0.0
02/02:30am 22.3 18.9 12.5 53 5.6 E 22 32 12 17 1012.8 1012.8 0.0
02/02:00am 22.3 19.3 12.5 53 5.6 E 20 26 11 14 1013.2 1013.2 0.0
02/01:30am 23.0 21.4 15.1 61 4.7 ENE 17 19 9 10 1014.0 1014.0 0.0
02/01:00am 23.6 20.6 12.6 50 6.3 ENE 20 30 11 16 1014.6 1014.6 0.0
02/12:30am 23.9 19.6 12.2 48 6.7 ENE 26 33 14 18 1014.5 1014.5 0.0
02/12:00am 24.5 19.6 12.5 47 6.9 E 30 39 16 21 1014.5 1014.5 0.0
 
Date/Time
WST
Temp
°C
App
Temp
°C
Dew
Point
Rel
Hum
%
Delta-T
°C
Wind Press
QNH
hPa
Press
MSL
hPa
Rain
since 9 am
mm
Dir
 
Spd
km/h
Gust
km/h
Spd
kts
Gust
kts
01/11:30pm 24.2 20.6 11.9 46 7.0 ENE 22 35 12 19 1014.7 1014.7 0.0
01/11:00pm 23.9 21.0 10.9 44 7.2 E 17 22 9 12 1013.8 1013.8 0.0
01/10:30pm 20.5 17.9 9.4 49 5.9 ESE 13 17 7 9 1013.6 1013.6 0.0
01/10:00pm 21.3 19.9 9.5 47 6.3 ESE 7 9 4 5 1013.3 1013.3 0.0
01/09:30pm 21.6 19.8 9.5 46 6.5 E 9 11 5 6 1013.3 1013.3 0.0
01/09:00pm 22.5 20.4 8.2 40 7.5 E 9 11 5 6 1012.9 1012.9 0.0
01/08:30pm 24.9 23.0 9.2 37 8.5 ENE 9 11 5 6 1012.7 1012.7 0.0
01/08:00pm 25.2 23.3 9.1 36 8.8 ESE 9 9 5 5 1012.4 1012.4 0.0
01/07:30pm 27.1 24.9 9.5 33 9.7 E 11 13 6 7 1012.2 1012.2 0.0
01/07:00pm 29.9 27.1 9.9 29 11.3 E 15 24 8 13 1011.9 1011.9 0.0
01/06:30pm 30.7 27.0 10.1 28 11.7 E 20 28 11 15 1011.8 1011.8 0.0
01/06:00pm 30.8 26.7 10.2 28 11.7 E 22 33 12 18 1011.6 1011.6 0.0
01/05:30pm 31.1 27.5 10.4 28 11.8 E 20 30 11 16 1011.7 1011.7 0.0
01/05:00pm 31.9 26.8 10.6 27 12.3 ESE 28 37 15 20 1011.8 1011.8 0.0
01/04:30pm 31.5 26.8 10.8 28 11.9 ESE 26 33 14 18 1012.3 1012.3 0.0
01/04:00pm 30.9 27.1 11.3 30 11.4 ESE 22 32 12 17 1012.5 1012.5 0.0
01/03:30pm 30.9 26.6 10.8 29 11.6 E 24 32 13 17 1013.2 1013.2 0.0
01/03:00pm 30.7 26.5 11.1 30 11.3 E 24 33 13 18 1013.6 1013.6 0.0
01/02:30pm 30.2 25.3 11.2 31 11.0 ESE 28 35 15 19 1013.7 1013.7 0.0
01/02:00pm 30.4 24.6 10.9 30 11.2 ESE 32 39 17 21 1014.0 1014.0 0.0
01/01:30pm 30.3 25.4 11.3 31 11.0 E 28 35 15 19 1014.1 1014.1 0.0
01/01:00pm 30.2 25.6 11.2 31 11.0 E 26 35 14 19 1014.4 1014.4 0.0
01/12:30pm 29.0 24.4 11.1 33 10.3 E 26 41 14 22 1014.9 1014.9 0.0
01/12:00pm 29.1 24.2 11.2 33 10.3 E 28 39 15 21 1015.1 1015.1 0.0
01/11:30am 27.1 20.7 10.7 35 9.3 E 35 44 19 24 1015.3 1015.3 0.0
01/11:00am 27.0 21.3 11.1 37 9.0 ESE 32 44 17 24 1015.4 1015.4 0.0
01/10:30am 25.7 19.8 11.1 40 8.2 ESE 33 44 18 24 1015.8 1015.8 0.0
01/10:00am 24.8 18.5 11.0 42 7.7 E 35 46 19 25 1016.0 1016.0 0.0
01/09:30am 24.9 17.9 11.1 42 7.8 ESE 39 50 21 27 1016.1 1016.1 0.0
01/09:00am 24.4 17.3 11.0 43 7.5 E 39 48 21 26 1016.1 1016.1 0.0
01/08:30am 22.6 15.9 11.0 48 6.4 E 37 52 20 28 1016.3 1016.3 0.0
01/08:00am 22.4 16.7 11.2 49 6.2 E 32 43 17 23 1016.3 1016.3 0.0
01/07:30am 21.7 16.1 11.4 52 5.7 E 32 39 17 21 1016.4 1016.4 0.0
01/07:00am 20.1 14.9 11.6 58 4.7 E 30 39 16 21 1016.3 1016.3 0.0
01/06:30am 19.1 15.1 11.7 62 4.1 ESE 24 32 13 17 1016.3 1016.3 0.0
01/06:00am 18.0 14.7 11.6 66 3.5 ESE 20 28 11 15 1016.1 1016.1 0.0
01/05:30am 17.8 14.5 11.6 67 3.4 ESE 20 32 11 17 1016.0 1016.0 0.0
01/05:00am 17.5 15.1 11.5 68 3.3 E 15 20 8 11 1016.2 1016.2 0.0
01/04:30am 17.5 14.1 11.3 67 3.4 E 20 32 11 17 1015.8 1015.8 0.0
01/04:00am 17.6 13.4 11.2 66 3.5 E 24 33 13 18 1015.4 1015.4 0.0
01/03:30am 18.0 13.0 11.1 64 3.7 E 28 37 15 20 1015.1 1015.1 0.0
01/03:00am 18.3 12.9 10.9 62 4.0 ESE 30 37 16 20 1015.1 1015.1 0.0
01/02:30am 18.5 13.1 10.8 61 4.2 ESE 30 41 16 22 1015.0 1015.0 0.0
01/02:00am 18.7 14.2 11.3 62 4.0 ESE 26 35 14 19 1015.3 1015.3 0.0
01/01:30am 19.0 13.3 11.3 61 4.2 ESE 32 44 17 24 1015.4 1015.4 0.0
01/01:00am 19.9 15.4 11.4 58 4.7 ESE 26 37 14 20 1015.4 1015.4 0.0
01/12:30am 21.0 16.4 11.1 53 5.5 ESE 26 37 14 20 1015.2 1015.2 0.0
01/12:00am 22.2 16.9 9.7 45 6.7 ESE 28 37 15 20 1015.3 1015.3 0.0
 
Date/Time
WST
Temp
°C
App
Temp
°C
Dew
Point
Rel
Hum
%
Delta-T
°C
Wind Press
QNH
hPa
Press
MSL
hPa
Rain
since 9 am
mm
Dir
 
Spd
km/h
Gust
km/h
Spd
kts
Gust
kts
31/11:30pm 22.9 18.1 9.0 41 7.4 ESE 24 32 13 17 1015.4 1015.4 0.0
31/11:00pm 23.6 18.4 8.8 39 7.9 ESE 26 33 14 18 1015.3 1015.3 0.0
31/10:30pm 24.3 19.1 8.7 37 8.4 ESE 26 39 14 21 1015.4 1015.4 0.0
31/10:00pm 25.0 19.3 8.5 35 8.9 E 28 39 15 21 1015.7 1015.7 0.0
31/09:30pm 25.5 20.7 8.9 35 9.0 E 24 35 13 19 1016.0 1016.0 0.0
31/09:00pm 26.2 21.1 9.1 34 9.3 E 26 32 14 17 1015.7 1015.7 0.0
31/08:30pm 26.9 21.1 9.3 33 9.7 E 30 37 16 20 1015.3 1015.3 0.0
31/08:00pm 27.1 22.9 9.9 34 9.6 ESE 22 33 12 18 1015.1 1015.1 0.0
31/07:30pm 27.9 23.4 10.1 33 10.0 E 24 33 13 18 1014.6 1014.6 0.0
31/07:00pm 28.8 24.4 10.5 32 10.4 E 24 33 13 18 1014.3 1014.3 0.0
31/06:30pm 29.7 25.4 10.8 31 10.8 E 24 32 13 17 1014.1 1014.1 0.0
31/06:00pm 30.4 25.8 10.9 30 11.2 E 26 32 14 17 1013.8 1013.8 0.0
31/05:30pm 30.8 25.5 11.2 30 11.3 ENE 30 39 16 21 1013.5 1013.5 0.0
31/05:00pm 32.0 27.1 11.2 28 12.1 E 28 43 15 23 1013.4 1013.4 0.0
31/04:30pm 31.7 26.7 11.0 28 12.0 E 28 37 15 20 1013.4 1013.4 0.0
31/04:00pm 34.0 29.6 11.8 26 13.1 E 26 41 14 22 1013.4 1013.4 0.0
31/03:30pm 32.6 28.4 11.2 27 12.5 E 24 39 13 21 1013.8 1013.8 0.0
31/03:06pm 32.8 28.1 11.9 28 12.3 E 28 63 15 34 1013.9 1013.9 0.0
31/03:00pm 32.7 28.3 11.8 28 12.3 E 26 39 14 21 1013.9 1013.9 0.0
31/02:30pm 32.3 27.2 12.0 29 12.0 E 30 41 16 22 1014.1 1014.1 0.0
31/02:00pm 33.3 29.1 11.2 26 12.9 ESE 24 35 13 19 1014.3 1014.3 0.0
31/01:30pm 32.3 28.0 10.9 27 12.4 ESE 24 35 13 19 1014.4 1014.4 0.0
31/01:00pm 31.3 26.2 10.6 28 11.9 ESE 28 39 15 21 1014.9 1014.9 0.0
31/12:30pm 31.6 27.0 10.9 28 12.0 ESE 26 33 14 18 1015.2 1015.2 0.0
31/12:00pm 30.7 25.7 11.1 30 11.3 E 28 37 15 20 1015.5 1015.5 0.0
31/11:30am 29.4 24.0 11.0 32 10.5 E 30 39 16 21 1015.8 1015.8 0.0
31/11:00am 28.2 23.6 10.9 34 9.8 ESE 26 35 14 19 1015.9 1015.9 0.0
31/10:30am 27.7 22.7 10.9 35 9.5 ESE 28 39 15 21 1016.1 1016.1 0.0
31/10:00am 26.8 21.8 10.9 37 9.0 SE 28 35 15 19 1016.3 1016.3 0.0
31/09:30am 25.4 20.5 11.2 41 8.0 SE 28 37 15 20 1016.4 1016.4 0.0
31/09:00am 24.4 20.4 11.7 45 7.2 ESE 24 35 13 19 1016.6 1016.6 0.0
31/08:30am 22.9 18.9 11.9 50 6.2 ESE 24 35 13 19 1016.9 1016.9 0.0
31/08:00am 22.3 18.4 12.0 52 5.8 ESE 24 33 13 18 1017.2 1017.2 0.0
31/07:30am 21.0 17.4 11.9 56 5.1 ESE 22 32 12 17 1017.1 1017.1 0.0
31/07:00am 19.9 16.8 12.2 61 4.3 ESE 20 26 11 14 1017.0 1017.0 0.0
31/06:30am 18.8 15.8 11.9 64 3.8 ESE 19 24 10 13 1016.9 1016.9 0.0
31/06:00am 17.8 14.7 11.6 67 3.4 ESE 19 24 10 13 1016.6 1016.6 0.0
31/05:30am 17.6 14.9 11.6 68 3.3 E 17 24 9 13 1016.3 1016.3 0.0
31/05:00am 17.8 14.5 11.6 67 3.4 ESE 20 26 11 14 1016.1 1016.1 0.0
31/04:30am 18.1 14.8 11.7 66 3.5 ESE 20 28 11 15 1015.8 1015.8 0.0
31/04:00am 18.3 14.2 11.6 65 3.7 ESE 24 32 13 17 1015.6 1015.6 0.0
31/03:30am 18.4 13.6 11.7 65 3.7 ESE 28 35 15 19 1015.5 1015.5 0.0
31/03:00am 18.7 14.2 11.5 63 3.9 ESE 26 35 14 19 1015.4 1015.4 0.0
31/02:30am 18.9 14.1 11.7 63 4.0 ESE 28 35 15 19 1015.1 1015.1 0.0
31/02:00am 19.4 14.6 11.7 61 4.2 E 28 39 15 21 1015.1 1015.1 0.0
31/01:30am 19.8 14.4 11.0 57 4.8 ESE 30 37 16 20 1015.2 1015.2 0.0
31/01:00am 20.8 15.0 10.9 53 5.4 ESE 32 41 17 22 1015.1 1015.1 0.0
31/12:30am 21.7 16.2 10.5 49 6.1 ESE 30 39 16 21 1014.9 1014.9 0.0
31/12:00am 22.3 17.0 11.4 50 6.1 ESE 30 39 16 21 1015.0 1015.0 0.0
 
Date/Time
WST
Temp
°C
App
Temp
°C
Dew
Point
Rel
Hum
%
Delta-T
°C
Wind Press
QNH
hPa
Press
MSL
hPa
Rain
since 9 am
mm
Dir
 
Spd
km/h
Gust
km/h
Spd
kts
Gust
kts
30/11:30pm 23.0 17.7 11.1 47 6.6 ESE 30 41 16 22 1014.8 1014.8 0.0
30/11:00pm 24.0 19.4 11.0 44 7.3 ESE 26 35 14 19 1014.7 1014.7 0.0
30/10:30pm 24.7 20.8 10.9 42 7.7 ESE 22 32 12 17 1014.9 1014.9 0.0
30/10:00pm 26.3 20.5 10.9 38 8.7 ESE 32 39 17 21 1014.7 1014.7 0.0
30/09:30pm 27.6 23.0 11.2 36 9.4 ESE 26 35 14 19 1014.6 1014.6 0.0
30/09:00pm 28.7 23.7 10.8 33 10.2 ESE 28 35 15 19 1014.0 1014.0 0.0
30/08:30pm 29.2 25.7 10.8 32 10.5 ESE 20 30 11 16 1013.4 1013.4 0.0
30/08:00pm 27.3 26.7 16.6 52 6.6 S 15 20 8 11 1012.8 1012.8 0.0
30/07:30pm 28.3 27.2 17.2 51 7.0 S 19 24 10 13 1012.5 1012.5 0.0
30/07:00pm 29.7 27.3 16.5 45 8.3 S 24 32 13 17 1011.9 1011.9 0.0
30/06:30pm 32.1 30.1 15.6 37 10.3 SSE 20 32 11 17 1011.6 1011.6 0.0
30/06:00pm 35.8 31.1 9.3 20 15.2 SE 24 30 13 16 1011.0 1011.0 0.0
30/05:30pm 36.6 32.5 10.0 20 15.5 ESE 22 33 12 18 1010.7 1010.7 0.0
30/05:00pm 36.6 32.5 10.0 20 15.5 SE 22 30 12 16 1010.7 1010.7 0.0
30/04:30pm 37.1 34.0 10.4 20 15.7 SE 17 33 9 18 1010.7 1010.7 0.0
30/04:00pm 36.6 31.9 10.7 21 15.3 SE 26 35 14 19 1010.9 1010.9 0.0
30/03:30pm 37.0 33.2 11.1 21 15.4 ESE 22 35 12 19 1011.2 1011.2 0.0
30/03:00pm 36.4 32.3 11.3 22 14.9 E 24 33 13 18 1011.4 1011.4 0.0
30/02:30pm 36.9 32.9 11.7 22 15.1 ESE 24 39 13 21 1011.6 1011.6 0.0
30/02:00pm 36.3 32.5 12.5 24 14.4 ESE 24 43 13 23 1011.9 1011.9 0.0
30/01:30pm 35.8 32.1 12.7 25 14.0 ESE 24 37 13 20 1012.2 1012.2 0.0
30/01:00pm 35.1 31.2 12.1 25 13.7 ESE 24 35 13 19 1012.5 1012.5 0.0
30/12:30pm 34.4 30.5 12.1 26 13.3 ESE 24 37 13 20 1012.8 1012.8 0.0
30/12:00pm 33.2 28.6 12.2 28 12.5 ESE 28 39 15 21 1013.1 1013.1 0.0
30/11:30am 32.4 28.4 13.1 31 11.6 ESE 26 33 14 18 1013.5 1013.5 0.0
30/11:00am 30.7 26.3 13.0 33 10.5 ESE 28 43 15 23 1013.8 1013.8 0.0
30/10:30am 30.3 26.6 14.0 37 9.8 ESE 26 35 14 19 1014.1 1014.1 0.0
30/10:00am 27.8 24.2 14.1 43 8.2 SE 26 33 14 18 1014.4 1014.4 0.0
30/09:30am 26.6 22.6 14.0 46 7.5 SSE 28 35 15 19 1014.7 1014.7 0.0
30/09:00am 25.8 22.3 14.6 50 6.7 SE 26 33 14 18 1014.7 1014.7 0.0
30/08:30am 24.8 22.0 14.3 52 6.2 SE 22 32 12 17 1014.7 1014.7 0.0

Other Formats:

Comma delimited format used in spreadsheet applications
http://www.bom.gov.au/fwo/IDW60801/IDW60801.95611.axf

JavaScript Object Notation format (JSON) in row-major order
http://www.bom.gov.au/fwo/IDW60801/IDW60801.95611.json